McCarthy, AK

10:48 AM AKST on December 03, 2016 (GMT -0900)
Gulkana | | Change Station
Active Advisory: Wind Chill Advisory

Elev 1578 ft 62.16 °N, 145.46 °W | Updated 55 minutes ago

Overcast
Overcast
6 °F
Feels Like -10 °F
N
13
Wind Variable Wind from NNW
Gusts 21 mph

Today
High -- | Low -- °F
--% Chance of Precip.
Yesterday
High -- | Low -- °F
Precip. -- in
Pressure 29.80 in
Visibility 10.0 miles
Clouds Overcast 5500 ft
Windchill -10 °F
Dew Point -5 °F
Humidity 60%
Rainfall 0.00 in
Snow Depth Not available.
9:25 AM 3:17 PM
Waxing Crescent, 16% visible
METAR PAGK 031853Z AUTO 34011G18KT 10SM OVC055 M14/M21 A2965 RMK AO2 SLP091 T11441206 TSNO $
Pressure 29.80 in
Visibility 10.0 miles
Clouds Overcast 5500 ft
Windchill -10 °F
Dew Point -5 °F
Humidity 60%
Rainfall 0.00 in
Snow Depth Not available.
9:25 AM 3:17 PM
Waxing Crescent, 16% visible
METAR PAGK 031853Z AUTO 34011G18KT 10SM OVC055 M14/M21 A2965 RMK AO2 SLP091 T11441206 TSNO $

10-Day Weather Forecast

Almanac

Astronomy

Dec. 03, 2016 Rise Set
Actual Time
Civil Twilight
Nautical Twilight
Astronomical Twilight
Moon
Length of Visible Light
Length of Day
Tomorrow will be .
, % of the Moon is Illuminated

Today's Extremes

State Highs State Lows

Community

WunderPhotos

Upload Photos

1,955,455 photos uploaded!

WunderBlog® & News

Nearby

Air Quality

  Air Quality AQ Index Pollutant
Not available.

Snow Depth

Station Depth Elevation

Earthquake Activity

City Distance Mag. Time & Date
Minimum magnitude displayed is 2.5.

Coastal Water Temperatures

Place Temperature

Stations

Nearby Weather Stations

Station Location Temp. Windchill Dew Point Humidity Wind Precip. Elev Updated Type
                   

Watches & Warnings

Wind Chill Advisory
Issued: 3:49 AM AKST Dec. 3, 2016 – National Weather Service

... Wind Chill Advisory in effect from midnight tonight to 11 am
akst Monday along the Alaska Range...

The National Weather Service in Anchorage has issued a Wind Chill
Advisory... which is in effect from midnight tonight to 11 am akst
Monday.

* Location... along the Alaska Range.

* Wind... north 10 to 20 mph with gusts as high as 35 mph.

* Wind chill values... 35 to 45 below zero.

* Timing... wind chills will drop tonight as cold air moves in and
the winds continue. There may be some moderation of wind chill
values during the afternoon hours on Sunday.

* Impacts... increased risk of hypothermia and frostbite.

Precautionary/preparedness actions...

A Wind Chill Advisory means that very cold air and strong winds
will combine to generate low wind chills. This will result in
frostbite and lead to hypothermia if precautions are not taken.